aviador You're here:

UBBG Decoded Metar

GYANDZHA in RUSSIA
Report Time2018-02-20 13:30:00
UTC Time2018-02-20 13:52:11
Flight Rules mvfr MVFR
WindCalm
Visibility9999 m
Phenomena:N/A
Clouds:Overcast 010 Hf
Expected CloudBase > 1,200 ft AGL from Temp-Dew spread
Ceiling1,000 ft
Temp06°C (ISA -7)
Dew Point03°C (81% RH)
AAT4.5°C
QNH1018 hPa
Density Alt197 ft
Elevation1,083 ft
Report Wrong Elevation
Raw Report
UBBG 201330Z 00000KT 9999 OVC010 06/03 Q1018 R30/190065=

Extra information for UBBG:More info

Metar Taf Metar & Taf Last 4 Metars F.Rules Stats Wind Profile Meteogram Temp Stats Airport Information Weather charts Add Link Nearby VenuesMetar ALERT Operation Metar Decoded Social comments